Terminal Aerodrome Forecast
Issued by NWS Omaha/Valley, NE

Home | Current Version | Previous Version | Text Only | Print | Product List | Glossary On
Versions: 1 2 3 4 5 6 7 8 9 10 11 12 13 14 15 16 17 18 19 20 21 22 23 24 25 26 27 28 29 30 31 32 33 34 35
000
FTUS43 KOAX 230520
TAFOFK
TAF
KOFK 230520Z 2306/2406 12006KT P6SM OVC050
     FM231300 14006KT P6SM OVC025
     FM231800 15011KT P6SM BKN025 OVC040
     FM240000 14007KT P6SM OVC015 PROB30 2400/2406 5SM -SHRA OVC009=

USA.gov is the U.S. government's official web portal to all federal, state and local government web resources and services.